Warning: Javascript must be enabled to use all the features on this page!


Page Loading - Please Wait...

* We've detected you're using a mobile device. Find our Next Generation Station Page here.
Click to hideNews Bulletins

Peak Streamflow for the Nation

USGS 02349605 FLINT RIVER AT GA 26, NEAR MONTEZUMA, GA

Macon County, Georgia
Hydrologic Unit Code 03130006
Latitude  32°17'35", Longitude  84°02'37" NAD83
Drainage area 2,920  square miles
Gage datum 255.37 feet above NAVD88
Output formats
Table
Graph
Tab-separated file
peakfq (watstore) format
Reselect output format
Water
Year
Date Gage
Height
(feet)
Stream-
flow
(cfs)
1897 1897-03-02 26.003 97,0007
1905 1905-02-15 17.303 24,5001
1906 1906-01-26 15.003 15,8001
1907 1907-02-08 13.003 11,0001
1908 1908-04-29 23.203 66,0001
1909 1909-03-16 18.703 31,8001
1910 1910-03-04 15.803 18,4001
1911 1911-08-06 9.303 6,0801
1912 1912-03-18 20.603 43,7001
1913 1913-03-18 22.303 57,4001
1914 1914-04-18 9.003 5,500
1915 1915-01-21 15.003 15,800
1916 1916-07-12 22.003 54,500
1917 1917-03-07 18.203 29,100
1918 1918-02-04 13.303 11,600
1919 1919-02-28 20.803 45,100
1920 1919-12-13 22.203 56,400
1921 1921-02-14 18.003 28,000
1922 1922-03-10 21.203 48,100
1923 1923-03-22 18.103 28,600
1924 1924-01-28 15.203 16,400
1925 1925-01-20 25.003 85,000
1926 1926-04-03 17.903 22,800
1927 1927-03-15 10.903 7,890
1928 1928-04-26 21.303 39,900
1929 1929-03-17 27.403 92,300
1930 1929-10-04 20.303 33,900
1931 1930-11-20 17.803 23,100
1932 1932-01-11 14.103 12,600
1933 1933-02-23 16.683 19,000
1934 1934-06-08 17.703 22,100
1935 1935-03-17 13.903 12,400
1936 1936-04-12 22.853 54,600
1937 1937-03-23 17.343 20,900
1938 1938-04-11 21.003 42,300
1939 1939-03-03 19.753 34,800
1940 1940-02-22 15.503 16,000
1941 1941-03-11 9.303 6,280
1942 1942-03-25 21.303 40,800
1943 1943-03-24 22.503 48,900
1944 1944-03-25 22.403 48,200
1945 1945-04-30 18.103 23,900
1946 1946-01-11 18.803 27,000
1947 1947-03-11 19.203 29,000
1948 1948-02-13 17.303 20,900
1949 1948-11-30 25.203 68,900
1950 1950-03-10 13.803 12,300
1951 1951-04-27 11.603 8,700
1952 1952-03-07 20.703 36,300
1953 1953-05-04 20.403 34,500
1954 1953-12-09 17.403 21,200
1955 1955-04-18 14.403 13,500
1956 1956-03-21 16.103 17,500
1957 1957-04-09 18.703 26,000
1958 1958-03-11 17.603 21,800
1959 1959-06-05 19.303 28,900
1960 1960-04-07 18.503 25,200
1961 1961-02-28 24.003 58,800
1962 1962-03-15 18.703 26,000
1963 1963-01-23 19.703 30,900
1964 1964-04-10 25.003 67,100
1965 1964-12-29 20.803 36,900
1966 1966-02-16 21.653 42,000
1967 1967-01-04 14.763 14,300
1968 1968-03-16 18.573 25,500
1969 1969-04-22 17.613 21,800
1970 1970-03-24 20.353 34,200
1971 1971-03-06 24.733 58,200
1972 1972-01-16 18.683 25,900
1973 1973-04-11 18.163 23,800
1974 1974-02-19 17.253 20,800
1975 1975-04-06 20.063 32,700
1976 1976-03-21 17.903 22,800
1977 1977-03-25 17.393 21,200
1978 1978-01-29 21.563 38,500
1979 1979-02-27 20.723 36,400
1980 1980-03-12 19.383 29,300
1981 1981-02-14 19.943 32,100
1982 1982-02-07 17.633 24,600
1983 1983-04-12 19.363 32,800
1984 1983-12-09 14.443 14,900
1985 1985-02-09 17.693 23,900
1986 1986-03-23 14.133 14,200
1987 1987-03-04 17.763 25,000
1988 1988-01-25 11.533 9,400
1989 1989-04-13 14.113 14,100
1990 1990-03-20 26.053 64,900
1991 1991-03-06 15.843 18,000
1992 1992-02-21 13.343 12,600
1993 1992-11-29 20.923 34,900
1994 1994-07-08 34.113 136,000
1995 1995-02-21 19.133 27,500
1996 1996-03-10 21.333 36,800
1997 1997-03-06 16.323 19,100
1998 1998-03-11 24.163 54,700
1999 1999-02-05 11.163 9,220
2000 2000-03-24 9.133 6,740
2001 2001-03-07 18.853 26,500
2002 2002-02-10 8.993 6,590
2003 2003-05-12 18.17 26,800
2004 2004-09-21 14.20 15,600
2005 2005-07-14 21.88 41,200
2006 2006-03-02 10.17 8,380
2007 2007-03-06 13.88 13,500
2008 2008-02-26 10.21 8,430
2009 2009-04-05 19.37 30,000
2010 2009-11-14 19.34 29,800
2011 2011-02-09 11.93 10,600
2012 2012-03-08 7.39 5,550
2013 2013-02-16 16.69 20,700
2014 2014-04-11 16.27 19,500
2015 2015-04-23 13.83 13,400
2016 2015-12-27 22.56 51,400
2017 2017-01-06 15.13 16,300
2018 2018-05-27 17.34 22,900
2019 2019-01-07 17.52 23,600
2020 2020-02-22 20.10 35,900
2021 2021-02-20 11.84 10,500
2022 2022-04-09 20.09 35,800
2023 2023-03-30 22.22 49,000
?
  Peak Gage-Height Qualification Codes.
?
  Peak Streamflow Qualification Codes.